sensor_id;sensor_type;location;lat;lon;timestamp;P1;durP1;ratioP1;P2;durP2;ratioP2
71172;SDS011;58875;51.996;4.504;2023-02-14T00:01:50;33.22;;;32.71;;
71172;SDS011;58875;51.996;4.504;2023-02-14T00:04:17;33.29;;;32.87;;
71172;SDS011;58875;51.996;4.504;2023-02-14T00:06:44;33.36;;;32.85;;
71172;SDS011;58875;51.996;4.504;2023-02-14T00:09:11;33.58;;;33.02;;
71172;SDS011;58875;51.996;4.504;2023-02-14T00:11:41;33.78;;;33.33;;
71172;SDS011;58875;51.996;4.504;2023-02-14T00:14:07;34.77;;;34.12;;
71172;SDS011;58875;51.996;4.504;2023-02-14T00:16:51;34.75;;;34.26;;
71172;SDS011;58875;51.996;4.504;2023-02-14T00:19:18;35.73;;;35.25;;
71172;SDS011;58875;51.996;4.504;2023-02-14T00:21:45;36.00;;;35.48;;
71172;SDS011;58875;51.996;4.504;2023-02-14T00:26:38;37.24;;;36.63;;
71172;SDS011;58875;51.996;4.504;2023-02-14T00:29:05;36.96;;;36.46;;
71172;SDS011;58875;51.996;4.504;2023-02-14T00:31:33;37.25;;;36.80;;
71172;SDS011;58875;51.996;4.504;2023-02-14T00:33:59;36.71;;;36.14;;
71172;SDS011;58875;51.996;4.504;2023-02-14T00:36:25;36.03;;;35.85;;
71172;SDS011;58875;51.996;4.504;2023-02-14T00:38:52;35.54;;;35.20;;
71172;SDS011;58875;51.996;4.504;2023-02-14T00:41:17;35.38;;;34.87;;
71172;SDS011;58875;51.996;4.504;2023-02-14T00:43:50;35.60;;;35.06;;
71172;SDS011;58875;51.996;4.504;2023-02-14T00:46:17;35.64;;;35.14;;
71172;SDS011;58875;51.996;4.504;2023-02-14T00:48:44;36.02;;;35.50;;
71172;SDS011;58875;51.996;4.504;2023-02-14T00:51:10;36.55;;;36.13;;
71172;SDS011;58875;51.996;4.504;2023-02-14T00:53:37;36.65;;;36.06;;
71172;SDS011;58875;51.996;4.504;2023-02-14T00:56:02;36.86;;;36.10;;
71172;SDS011;58875;51.996;4.504;2023-02-14T00:58:29;36.24;;;35.80;;
71172;SDS011;58875;51.996;4.504;2023-02-14T01:00:55;36.16;;;35.72;;
71172;SDS011;58875;51.996;4.504;2023-02-14T01:03:21;35.96;;;35.44;;
71172;SDS011;58875;51.996;4.504;2023-02-14T01:05:47;36.01;;;35.37;;
71172;SDS011;58875;51.996;4.504;2023-02-14T01:08:13;34.54;;;34.16;;
71172;SDS011;58875;51.996;4.504;2023-02-14T01:10:39;34.63;;;34.29;;
71172;SDS011;58875;51.996;4.504;2023-02-14T01:13:05;34.76;;;34.40;;
71172;SDS011;58875;51.996;4.504;2023-02-14T01:15:31;34.84;;;34.18;;
71172;SDS011;58875;51.996;4.504;2023-02-14T01:17:57;34.23;;;33.58;;
71172;SDS011;58875;51.996;4.504;2023-02-14T01:20:23;34.60;;;33.83;;
71172;SDS011;58875;51.996;4.504;2023-02-14T01:22:49;33.10;;;32.50;;
71172;SDS011;58875;51.996;4.504;2023-02-14T01:25:15;33.42;;;33.08;;
71172;SDS011;58875;51.996;4.504;2023-02-14T01:27:41;33.62;;;33.05;;
71172;SDS011;58875;51.996;4.504;2023-02-14T01:30:07;32.89;;;32.65;;
71172;SDS011;58875;51.996;4.504;2023-02-14T01:32:33;33.79;;;33.29;;
71172;SDS011;58875;51.996;4.504;2023-02-14T01:34:59;32.41;;;32.02;;
71172;SDS011;58875;51.996;4.504;2023-02-14T01:37:25;32.87;;;32.62;;
71172;SDS011;58875;51.996;4.504;2023-02-14T01:39:50;32.64;;;32.31;;
71172;SDS011;58875;51.996;4.504;2023-02-14T01:42:16;32.64;;;32.39;;
71172;SDS011;58875;51.996;4.504;2023-02-14T01:47:10;31.86;;;31.53;;
71172;SDS011;58875;51.996;4.504;2023-02-14T01:49:39;31.51;;;31.15;;
71172;SDS011;58875;51.996;4.504;2023-02-14T01:54:38;33.07;;;32.71;;
71172;SDS011;58875;51.996;4.504;2023-02-14T01:57:09;32.89;;;32.33;;
71172;SDS011;58875;51.996;4.504;2023-02-14T01:59:40;31.55;;;31.28;;
71172;SDS011;58875;51.996;4.504;2023-02-14T02:02:11;31.57;;;30.96;;
71172;SDS011;58875;51.996;4.504;2023-02-14T02:04:39;31.51;;;30.99;;
71172;SDS011;58875;51.996;4.504;2023-02-14T02:07:11;31.25;;;30.69;;
71172;SDS011;58875;51.996;4.504;2023-02-14T02:09:50;31.75;;;31.53;;
71172;SDS011;58875;51.996;4.504;2023-02-14T02:12:20;31.75;;;31.47;;
71172;SDS011;58875;51.996;4.504;2023-02-14T02:14:46;30.70;;;30.42;;
71172;SDS011;58875;51.996;4.504;2023-02-14T02:20:02;32.01;;;31.46;;
71172;SDS011;58875;51.996;4.504;2023-02-14T02:29:01;31.15;;;30.78;;
71172;SDS011;58875;51.996;4.504;2023-02-14T02:32:03;31.91;;;31.54;;
71172;SDS011;58875;51.996;4.504;2023-02-14T02:41:22;30.71;;;30.37;;
71172;SDS011;58875;51.996;4.504;2023-02-14T02:47:04;30.36;;;30.00;;
71172;SDS011;58875;51.996;4.504;2023-02-14T02:50:24;28.90;;;28.58;;
71172;SDS011;58875;51.996;4.504;2023-02-14T02:55:30;30.32;;;29.98;;
71172;SDS011;58875;51.996;4.504;2023-02-14T02:58:56;30.34;;;30.07;;
71172;SDS011;58875;51.996;4.504;2023-02-14T03:01:30;30.42;;;30.04;;
71172;SDS011;58875;51.996;4.504;2023-02-14T03:04:05;30.85;;;30.44;;
71172;SDS011;58875;51.996;4.504;2023-02-14T03:06:53;31.38;;;30.89;;
71172;SDS011;58875;51.996;4.504;2023-02-14T03:11:55;29.67;;;29.36;;
71172;SDS011;58875;51.996;4.504;2023-02-14T03:14:49;29.67;;;29.37;;
71172;SDS011;58875;51.996;4.504;2023-02-14T03:17:29;29.09;;;28.91;;
71172;SDS011;58875;51.996;4.504;2023-02-14T03:20:08;28.99;;;28.66;;
71172;SDS011;58875;51.996;4.504;2023-02-14T03:25:16;29.30;;;28.96;;
71172;SDS011;58875;51.996;4.504;2023-02-14T03:27:55;29.46;;;29.10;;
71172;SDS011;58875;51.996;4.504;2023-02-14T03:33:47;29.67;;;29.24;;
71172;SDS011;58875;51.996;4.504;2023-02-14T03:36:26;29.28;;;28.91;;
71172;SDS011;58875;51.996;4.504;2023-02-14T03:39:47;29.09;;;28.82;;
71172;SDS011;58875;51.996;4.504;2023-02-14T03:42:25;29.25;;;29.03;;
71172;SDS011;58875;51.996;4.504;2023-02-14T03:44:56;29.47;;;29.29;;
71172;SDS011;58875;51.996;4.504;2023-02-14T03:47:27;28.37;;;28.10;;
71172;SDS011;58875;51.996;4.504;2023-02-14T03:50:12;27.73;;;27.48;;
71172;SDS011;58875;51.996;4.504;2023-02-14T03:52:45;28.65;;;28.46;;
71172;SDS011;58875;51.996;4.504;2023-02-14T03:55:39;28.20;;;27.94;;
71172;SDS011;58875;51.996;4.504;2023-02-14T03:58:20;28.38;;;27.99;;
71172;SDS011;58875;51.996;4.504;2023-02-14T04:00:56;27.37;;;27.20;;
71172;SDS011;58875;51.996;4.504;2023-02-14T04:03:28;28.99;;;28.53;;
71172;SDS011;58875;51.996;4.504;2023-02-14T04:05:57;29.11;;;28.68;;
71172;SDS011;58875;51.996;4.504;2023-02-14T04:08:25;28.19;;;28.04;;
71172;SDS011;58875;51.996;4.504;2023-02-14T04:10:53;28.30;;;28.10;;
71172;SDS011;58875;51.996;4.504;2023-02-14T04:13:23;30.11;;;29.61;;
71172;SDS011;58875;51.996;4.504;2023-02-14T04:15:48;29.55;;;29.23;;
71172;SDS011;58875;51.996;4.504;2023-02-14T04:18:14;28.96;;;28.69;;
71172;SDS011;58875;51.996;4.504;2023-02-14T04:20:58;30.64;;;30.04;;
71172;SDS011;58875;51.996;4.504;2023-02-14T04:23:23;31.35;;;30.90;;
71172;SDS011;58875;51.996;4.504;2023-02-14T04:25:49;31.36;;;31.03;;
71172;SDS011;58875;51.996;4.504;2023-02-14T04:28:15;31.34;;;30.96;;
71172;SDS011;58875;51.996;4.504;2023-02-14T04:30:41;30.80;;;30.43;;
71172;SDS011;58875;51.996;4.504;2023-02-14T04:33:07;31.20;;;30.74;;
71172;SDS011;58875;51.996;4.504;2023-02-14T04:35:33;30.64;;;30.35;;
71172;SDS011;58875;51.996;4.504;2023-02-14T04:38:00;30.74;;;30.55;;
71172;SDS011;58875;51.996;4.504;2023-02-14T04:40:28;30.73;;;30.36;;
71172;SDS011;58875;51.996;4.504;2023-02-14T04:42:58;31.62;;;31.31;;
71172;SDS011;58875;51.996;4.504;2023-02-14T04:45:26;30.91;;;30.55;;
71172;SDS011;58875;51.996;4.504;2023-02-14T04:47:52;32.32;;;31.83;;
71172;SDS011;58875;51.996;4.504;2023-02-14T04:50:17;30.67;;;30.31;;
71172;SDS011;58875;51.996;4.504;2023-02-14T04:52:43;31.35;;;30.97;;
71172;SDS011;58875;51.996;4.504;2023-02-14T04:55:08;30.41;;;30.13;;
71172;SDS011;58875;51.996;4.504;2023-02-14T04:57:35;30.28;;;29.97;;
71172;SDS011;58875;51.996;4.504;2023-02-14T05:00:02;30.16;;;29.73;;
71172;SDS011;58875;51.996;4.504;2023-02-14T05:02:28;29.91;;;29.70;;
71172;SDS011;58875;51.996;4.504;2023-02-14T05:04:54;29.34;;;29.15;;
71172;SDS011;58875;51.996;4.504;2023-02-14T05:07:27;30.05;;;29.74;;
71172;SDS011;58875;51.996;4.504;2023-02-14T05:09:53;29.30;;;28.91;;
71172;SDS011;58875;51.996;4.504;2023-02-14T05:12:22;29.23;;;28.81;;
71172;SDS011;58875;51.996;4.504;2023-02-14T05:15:03;29.41;;;29.05;;
71172;SDS011;58875;51.996;4.504;2023-02-14T05:17:29;28.34;;;28.24;;
71172;SDS011;58875;51.996;4.504;2023-02-14T05:19:55;27.83;;;27.62;;
71172;SDS011;58875;51.996;4.504;2023-02-14T05:22:22;29.45;;;28.98;;
71172;SDS011;58875;51.996;4.504;2023-02-14T05:24:49;28.18;;;27.86;;
71172;SDS011;58875;51.996;4.504;2023-02-14T05:27:16;28.89;;;28.39;;
71172;SDS011;58875;51.996;4.504;2023-02-14T05:29:41;27.73;;;27.45;;
71172;SDS011;58875;51.996;4.504;2023-02-14T05:32:07;27.57;;;27.37;;
71172;SDS011;58875;51.996;4.504;2023-02-14T05:34:32;26.90;;;26.54;;
71172;SDS011;58875;51.996;4.504;2023-02-14T05:36:58;27.94;;;27.42;;
71172;SDS011;58875;51.996;4.504;2023-02-14T05:39:24;27.32;;;27.14;;
71172;SDS011;58875;51.996;4.504;2023-02-14T05:41:49;27.37;;;27.13;;
71172;SDS011;58875;51.996;4.504;2023-02-14T05:44:15;27.15;;;26.90;;
71172;SDS011;58875;51.996;4.504;2023-02-14T05:46:40;27.63;;;27.23;;
71172;SDS011;58875;51.996;4.504;2023-02-14T05:49:06;27.34;;;26.91;;
71172;SDS011;58875;51.996;4.504;2023-02-14T05:51:33;28.68;;;28.46;;
71172;SDS011;58875;51.996;4.504;2023-02-14T05:53:58;29.57;;;29.28;;
71172;SDS011;58875;51.996;4.504;2023-02-14T05:56:25;30.21;;;29.78;;
71172;SDS011;58875;51.996;4.504;2023-02-14T05:58:51;29.49;;;29.30;;
71172;SDS011;58875;51.996;4.504;2023-02-14T06:01:16;29.09;;;28.84;;
71172;SDS011;58875;51.996;4.504;2023-02-14T06:03:42;29.46;;;29.12;;
71172;SDS011;58875;51.996;4.504;2023-02-14T06:06:07;29.47;;;29.06;;
71172;SDS011;58875;51.996;4.504;2023-02-14T06:08:33;28.47;;;28.07;;
71172;SDS011;58875;51.996;4.504;2023-02-14T06:10:58;27.60;;;27.42;;
71172;SDS011;58875;51.996;4.504;2023-02-14T06:13:24;28.27;;;28.07;;
71172;SDS011;58875;51.996;4.504;2023-02-14T06:15:49;30.20;;;29.81;;
71172;SDS011;58875;51.996;4.504;2023-02-14T06:18:15;30.01;;;29.76;;
71172;SDS011;58875;51.996;4.504;2023-02-14T06:20:40;30.12;;;29.78;;
71172;SDS011;58875;51.996;4.504;2023-02-14T06:23:06;28.67;;;28.35;;
71172;SDS011;58875;51.996;4.504;2023-02-14T06:25:32;28.64;;;28.51;;
71172;SDS011;58875;51.996;4.504;2023-02-14T06:27:57;28.81;;;28.58;;
71172;SDS011;58875;51.996;4.504;2023-02-14T06:30:23;27.91;;;27.74;;
71172;SDS011;58875;51.996;4.504;2023-02-14T06:32:50;27.41;;;27.31;;
71172;SDS011;58875;51.996;4.504;2023-02-14T06:35:16;27.74;;;27.42;;
71172;SDS011;58875;51.996;4.504;2023-02-14T06:37:42;27.94;;;27.74;;
71172;SDS011;58875;51.996;4.504;2023-02-14T06:40:09;28.31;;;28.22;;
71172;SDS011;58875;51.996;4.504;2023-02-14T06:42:38;27.73;;;27.69;;
71172;SDS011;58875;51.996;4.504;2023-02-14T06:45:04;27.02;;;26.84;;
71172;SDS011;58875;51.996;4.504;2023-02-14T06:47:30;27.00;;;26.80;;
71172;SDS011;58875;51.996;4.504;2023-02-14T06:49:56;27.35;;;27.30;;
71172;SDS011;58875;51.996;4.504;2023-02-14T06:52:24;26.58;;;26.50;;
71172;SDS011;58875;51.996;4.504;2023-02-14T06:54:50;26.65;;;26.48;;
71172;SDS011;58875;51.996;4.504;2023-02-14T06:57:16;26.00;;;25.94;;
71172;SDS011;58875;51.996;4.504;2023-02-14T06:59:43;25.36;;;25.33;;
71172;SDS011;58875;51.996;4.504;2023-02-14T07:02:09;25.75;;;25.68;;
71172;SDS011;58875;51.996;4.504;2023-02-14T07:04:35;24.77;;;24.72;;
71172;SDS011;58875;51.996;4.504;2023-02-14T07:07:01;26.12;;;25.96;;
71172;SDS011;58875;51.996;4.504;2023-02-14T07:09:27;25.12;;;25.04;;
71172;SDS011;58875;51.996;4.504;2023-02-14T07:11:52;26.32;;;26.29;;
71172;SDS011;58875;51.996;4.504;2023-02-14T07:14:18;26.77;;;26.66;;
71172;SDS011;58875;51.996;4.504;2023-02-14T07:16:43;27.09;;;26.98;;
71172;SDS011;58875;51.996;4.504;2023-02-14T07:19:10;26.70;;;26.67;;
71172;SDS011;58875;51.996;4.504;2023-02-14T07:21:36;27.45;;;27.30;;
71172;SDS011;58875;51.996;4.504;2023-02-14T07:24:01;27.71;;;27.64;;
71172;SDS011;58875;51.996;4.504;2023-02-14T07:26:27;28.38;;;28.23;;
71172;SDS011;58875;51.996;4.504;2023-02-14T07:28:52;28.04;;;27.79;;
71172;SDS011;58875;51.996;4.504;2023-02-14T07:31:18;28.39;;;28.20;;
71172;SDS011;58875;51.996;4.504;2023-02-14T07:33:46;28.44;;;28.30;;
71172;SDS011;58875;51.996;4.504;2023-02-14T07:36:12;27.99;;;27.85;;
71172;SDS011;58875;51.996;4.504;2023-02-14T07:38:37;28.45;;;28.27;;
71172;SDS011;58875;51.996;4.504;2023-02-14T07:41:03;28.23;;;28.10;;
71172;SDS011;58875;51.996;4.504;2023-02-14T07:43:28;27.93;;;27.80;;
71172;SDS011;58875;51.996;4.504;2023-02-14T07:45:54;27.57;;;27.51;;
71172;SDS011;58875;51.996;4.504;2023-02-14T07:48:20;27.26;;;27.21;;
71172;SDS011;58875;51.996;4.504;2023-02-14T07:50:46;27.69;;;27.58;;
71172;SDS011;58875;51.996;4.504;2023-02-14T07:53:12;27.63;;;27.50;;
71172;SDS011;58875;51.996;4.504;2023-02-14T07:55:37;29.05;;;28.74;;
71172;SDS011;58875;51.996;4.504;2023-02-14T07:58:04;28.85;;;28.65;;
71172;SDS011;58875;51.996;4.504;2023-02-14T08:00:30;29.33;;;29.16;;
71172;SDS011;58875;51.996;4.504;2023-02-14T08:02:56;30.44;;;30.22;;
71172;SDS011;58875;51.996;4.504;2023-02-14T08:05:21;30.10;;;29.79;;
71172;SDS011;58875;51.996;4.504;2023-02-14T08:07:47;29.61;;;29.50;;
71172;SDS011;58875;51.996;4.504;2023-02-14T08:10:13;30.18;;;30.03;;
71172;SDS011;58875;51.996;4.504;2023-02-14T08:12:39;30.99;;;30.81;;
71172;SDS011;58875;51.996;4.504;2023-02-14T08:15:24;32.59;;;32.39;;
71172;SDS011;58875;51.996;4.504;2023-02-14T08:18:12;34.30;;;33.97;;
71172;SDS011;58875;51.996;4.504;2023-02-14T08:20:39;33.77;;;33.32;;
71172;SDS011;58875;51.996;4.504;2023-02-14T08:23:04;34.19;;;34.01;;
71172;SDS011;58875;51.996;4.504;2023-02-14T08:25:30;37.77;;;37.45;;
71172;SDS011;58875;51.996;4.504;2023-02-14T08:27:56;34.84;;;34.69;;
71172;SDS011;58875;51.996;4.504;2023-02-14T08:30:21;34.10;;;34.06;;
71172;SDS011;58875;51.996;4.504;2023-02-14T08:32:47;34.02;;;33.99;;
71172;SDS011;58875;51.996;4.504;2023-02-14T08:35:13;35.88;;;35.67;;
71172;SDS011;58875;51.996;4.504;2023-02-14T08:37:39;36.68;;;36.19;;
71172;SDS011;58875;51.996;4.504;2023-02-14T08:40:04;36.99;;;36.76;;
71172;SDS011;58875;51.996;4.504;2023-02-14T08:42:31;37.05;;;36.92;;
71172;SDS011;58875;51.996;4.504;2023-02-14T08:44:56;37.94;;;37.86;;
71172;SDS011;58875;51.996;4.504;2023-02-14T08:47:22;37.46;;;37.30;;
71172;SDS011;58875;51.996;4.504;2023-02-14T08:49:47;37.84;;;37.60;;
71172;SDS011;58875;51.996;4.504;2023-02-14T08:52:14;38.30;;;38.15;;
71172;SDS011;58875;51.996;4.504;2023-02-14T08:54:40;38.25;;;38.09;;
71172;SDS011;58875;51.996;4.504;2023-02-14T08:57:05;40.34;;;40.11;;
71172;SDS011;58875;51.996;4.504;2023-02-14T08:59:31;39.56;;;39.39;;
71172;SDS011;58875;51.996;4.504;2023-02-14T09:01:56;40.85;;;40.64;;
71172;SDS011;58875;51.996;4.504;2023-02-14T09:04:22;41.33;;;41.15;;
71172;SDS011;58875;51.996;4.504;2023-02-14T09:06:47;41.29;;;41.04;;
71172;SDS011;58875;51.996;4.504;2023-02-14T09:09:13;42.25;;;41.95;;
71172;SDS011;58875;51.996;4.504;2023-02-14T09:11:39;43.17;;;42.83;;
71172;SDS011;58875;51.996;4.504;2023-02-14T09:14:04;43.71;;;43.31;;
71172;SDS011;58875;51.996;4.504;2023-02-14T09:16:30;43.66;;;43.32;;
71172;SDS011;58875;51.996;4.504;2023-02-14T09:18:55;43.94;;;43.73;;
71172;SDS011;58875;51.996;4.504;2023-02-14T09:21:22;45.13;;;44.86;;
71172;SDS011;58875;51.996;4.504;2023-02-14T09:23:49;44.09;;;43.94;;
71172;SDS011;58875;51.996;4.504;2023-02-14T09:26:16;45.96;;;45.57;;
71172;SDS011;58875;51.996;4.504;2023-02-14T09:28:43;45.34;;;45.16;;
71172;SDS011;58875;51.996;4.504;2023-02-14T09:31:10;45.15;;;44.86;;
71172;SDS011;58875;51.996;4.504;2023-02-14T09:33:41;45.79;;;45.59;;
71172;SDS011;58875;51.996;4.504;2023-02-14T09:36:26;45.36;;;45.28;;
71172;SDS011;58875;51.996;4.504;2023-02-14T09:38:51;46.43;;;46.26;;
71172;SDS011;58875;51.996;4.504;2023-02-14T09:47:19;46.35;;;46.15;;
71172;SDS011;58875;51.996;4.504;2023-02-14T09:50:17;46.55;;;46.37;;
71172;SDS011;58875;51.996;4.504;2023-02-14T09:52:48;46.97;;;46.72;;
71172;SDS011;58875;51.996;4.504;2023-02-14T09:55:18;47.86;;;47.57;;
71172;SDS011;58875;51.996;4.504;2023-02-14T09:57:48;47.46;;;47.17;;
71172;SDS011;58875;51.996;4.504;2023-02-14T10:00:22;47.45;;;47.19;;
71172;SDS011;58875;51.996;4.504;2023-02-14T10:11:16;46.07;;;45.24;;
71172;SDS011;58875;51.996;4.504;2023-02-14T10:18:54;45.85;;;45.11;;
71172;SDS011;58875;51.996;4.504;2023-02-14T10:21:29;45.11;;;44.38;;
71172;SDS011;58875;51.996;4.504;2023-02-14T10:27:02;44.82;;;44.13;;
71172;SDS011;58875;51.996;4.504;2023-02-14T10:29:36;45.63;;;44.79;;
71172;SDS011;58875;51.996;4.504;2023-02-14T10:32:03;45.75;;;45.16;;
71172;SDS011;58875;51.996;4.504;2023-02-14T10:34:34;45.47;;;44.77;;
71172;SDS011;58875;51.996;4.504;2023-02-14T10:43:01;46.42;;;45.60;;
71172;SDS011;58875;51.996;4.504;2023-02-14T10:45:44;45.63;;;44.97;;
71172;SDS011;58875;51.996;4.504;2023-02-14T10:56:42;45.81;;;45.30;;
71172;SDS011;58875;51.996;4.504;2023-02-14T11:01:42;44.84;;;44.48;;
71172;SDS011;58875;51.996;4.504;2023-02-14T11:04:08;44.99;;;44.43;;
71172;SDS011;58875;51.996;4.504;2023-02-14T11:06:38;43.99;;;43.17;;
71172;SDS011;58875;51.996;4.504;2023-02-14T11:09:03;43.11;;;42.32;;
71172;SDS011;58875;51.996;4.504;2023-02-14T11:11:30;43.62;;;43.08;;
71172;SDS011;58875;51.996;4.504;2023-02-14T11:14:29;43.07;;;42.55;;
71172;SDS011;58875;51.996;4.504;2023-02-14T11:16:58;43.64;;;42.99;;
71172;SDS011;58875;51.996;4.504;2023-02-14T11:19:31;43.41;;;42.79;;
71172;SDS011;58875;51.996;4.504;2023-02-14T11:22:01;42.84;;;42.45;;
71172;SDS011;58875;51.996;4.504;2023-02-14T11:27:05;42.82;;;42.48;;
71172;SDS011;58875;51.996;4.504;2023-02-14T11:29:42;41.70;;;41.47;;
71172;SDS011;58875;51.996;4.504;2023-02-14T11:32:22;41.69;;;41.36;;
71172;SDS011;58875;51.996;4.504;2023-02-14T11:34:51;42.16;;;41.91;;
71172;SDS011;58875;51.996;4.504;2023-02-14T11:37:42;43.14;;;42.44;;
71172;SDS011;58875;51.996;4.504;2023-02-14T11:43:25;43.16;;;42.82;;
71172;SDS011;58875;51.996;4.504;2023-02-14T11:45:53;41.85;;;41.60;;
71172;SDS011;58875;51.996;4.504;2023-02-14T11:48:31;41.69;;;41.37;;
71172;SDS011;58875;51.996;4.504;2023-02-14T11:51:02;41.01;;;40.77;;
71172;SDS011;58875;51.996;4.504;2023-02-14T11:53:37;42.06;;;41.75;;
71172;SDS011;58875;51.996;4.504;2023-02-14T11:56:07;41.41;;;40.93;;
71172;SDS011;58875;51.996;4.504;2023-02-14T11:58:35;41.66;;;41.17;;
71172;SDS011;58875;51.996;4.504;2023-02-14T12:01:28;41.35;;;40.92;;
71172;SDS011;58875;51.996;4.504;2023-02-14T12:04:00;40.29;;;40.10;;
71172;SDS011;58875;51.996;4.504;2023-02-14T12:06:32;41.94;;;41.72;;
71172;SDS011;58875;51.996;4.504;2023-02-14T12:09:22;41.47;;;41.22;;
71172;SDS011;58875;51.996;4.504;2023-02-14T12:11:54;40.67;;;40.46;;
71172;SDS011;58875;51.996;4.504;2023-02-14T12:14:22;41.53;;;41.02;;
71172;SDS011;58875;51.996;4.504;2023-02-14T12:17:03;41.43;;;40.87;;
71172;SDS011;58875;51.996;4.504;2023-02-14T12:19:41;40.81;;;40.17;;
71172;SDS011;58875;51.996;4.504;2023-02-14T12:22:32;39.53;;;39.26;;
71172;SDS011;58875;51.996;4.504;2023-02-14T12:25:04;41.00;;;40.39;;
71172;SDS011;58875;51.996;4.504;2023-02-14T12:30:18;40.59;;;40.33;;
71172;SDS011;58875;51.996;4.504;2023-02-14T12:32:47;41.27;;;40.90;;
71172;SDS011;58875;51.996;4.504;2023-02-14T12:41:28;39.62;;;39.27;;
71172;SDS011;58875;51.996;4.504;2023-02-14T12:50:48;39.94;;;39.66;;
71172;SDS011;58875;51.996;4.504;2023-02-14T12:57:17;39.07;;;38.57;;
71172;SDS011;58875;51.996;4.504;2023-02-14T13:04:47;38.25;;;37.93;;
71172;SDS011;58875;51.996;4.504;2023-02-14T13:10:13;37.65;;;37.32;;
71172;SDS011;58875;51.996;4.504;2023-02-14T13:18:46;37.14;;;36.69;;
71172;SDS011;58875;51.996;4.504;2023-02-14T13:21:33;37.16;;;36.53;;
71172;SDS011;58875;51.996;4.504;2023-02-14T13:26:43;38.20;;;37.57;;
71172;SDS011;58875;51.996;4.504;2023-02-14T13:29:18;37.94;;;37.35;;
71172;SDS011;58875;51.996;4.504;2023-02-14T13:31:47;38.09;;;37.50;;
71172;SDS011;58875;51.996;4.504;2023-02-14T13:34:22;37.96;;;37.60;;
71172;SDS011;58875;51.996;4.504;2023-02-14T13:36:54;37.46;;;37.14;;
71172;SDS011;58875;51.996;4.504;2023-02-14T13:41:56;38.12;;;37.58;;
71172;SDS011;58875;51.996;4.504;2023-02-14T13:47:21;37.71;;;37.45;;
71172;SDS011;58875;51.996;4.504;2023-02-14T13:49:49;39.05;;;38.37;;
71172;SDS011;58875;51.996;4.504;2023-02-14T13:52:43;37.72;;;37.28;;
71172;SDS011;58875;51.996;4.504;2023-02-14T13:55:22;38.13;;;37.55;;
71172;SDS011;58875;51.996;4.504;2023-02-14T14:00:48;36.95;;;36.68;;
71172;SDS011;58875;51.996;4.504;2023-02-14T14:06:00;37.77;;;37.07;;
71172;SDS011;58875;51.996;4.504;2023-02-14T14:10:58;36.59;;;36.12;;
71172;SDS011;58875;51.996;4.504;2023-02-14T14:18:47;39.50;;;39.06;;
71172;SDS011;58875;51.996;4.504;2023-02-14T14:26:48;39.82;;;39.20;;
71172;SDS011;58875;51.996;4.504;2023-02-14T14:29:43;39.65;;;39.23;;
71172;SDS011;58875;51.996;4.504;2023-02-14T14:32:24;41.07;;;40.77;;
71172;SDS011;58875;51.996;4.504;2023-02-14T14:35:02;42.45;;;41.90;;
71172;SDS011;58875;51.996;4.504;2023-02-14T14:37:46;42.24;;;42.02;;
71172;SDS011;58875;51.996;4.504;2023-02-14T14:40:25;42.61;;;42.29;;
71172;SDS011;58875;51.996;4.504;2023-02-14T14:42:58;42.93;;;42.39;;
71172;SDS011;58875;51.996;4.504;2023-02-14T14:45:37;43.17;;;42.67;;
71172;SDS011;58875;51.996;4.504;2023-02-14T14:48:09;42.00;;;41.59;;
71172;SDS011;58875;51.996;4.504;2023-02-14T14:50:39;42.92;;;42.53;;
71172;SDS011;58875;51.996;4.504;2023-02-14T14:53:18;42.51;;;42.11;;
71172;SDS011;58875;51.996;4.504;2023-02-14T14:55:49;42.81;;;42.44;;
71172;SDS011;58875;51.996;4.504;2023-02-14T15:01:06;42.53;;;42.13;;
71172;SDS011;58875;51.996;4.504;2023-02-14T15:03:40;43.09;;;42.65;;
71172;SDS011;58875;51.996;4.504;2023-02-14T15:08:41;42.66;;;42.39;;
71172;SDS011;58875;51.996;4.504;2023-02-14T15:14:12;43.78;;;43.25;;
71172;SDS011;58875;51.996;4.504;2023-02-14T15:16:50;44.77;;;44.07;;
71172;SDS011;58875;51.996;4.504;2023-02-14T15:21:47;44.56;;;44.18;;
71172;SDS011;58875;51.996;4.504;2023-02-14T15:24:13;45.08;;;44.82;;
71172;SDS011;58875;51.996;4.504;2023-02-14T15:26:42;46.85;;;46.18;;
71172;SDS011;58875;51.996;4.504;2023-02-14T15:29:17;45.15;;;44.69;;
71172;SDS011;58875;51.996;4.504;2023-02-14T15:31:49;44.28;;;43.76;;
71172;SDS011;58875;51.996;4.504;2023-02-14T15:34:21;43.39;;;42.93;;
71172;SDS011;58875;51.996;4.504;2023-02-14T15:36:50;44.61;;;44.09;;
71172;SDS011;58875;51.996;4.504;2023-02-14T15:39:24;45.00;;;44.49;;
71172;SDS011;58875;51.996;4.504;2023-02-14T15:42:26;44.61;;;44.36;;
71172;SDS011;58875;51.996;4.504;2023-02-14T15:47:48;46.34;;;45.70;;
71172;SDS011;58875;51.996;4.504;2023-02-14T15:52:49;46.81;;;46.05;;
71172;SDS011;58875;51.996;4.504;2023-02-14T15:55:24;45.71;;;45.34;;
71172;SDS011;58875;51.996;4.504;2023-02-14T15:57:55;46.02;;;45.38;;
71172;SDS011;58875;51.996;4.504;2023-02-14T16:00:37;44.93;;;44.25;;
71172;SDS011;58875;51.996;4.504;2023-02-14T16:03:06;45.37;;;44.65;;
71172;SDS011;58875;51.996;4.504;2023-02-14T16:05:46;45.48;;;44.85;;
71172;SDS011;58875;51.996;4.504;2023-02-14T16:11:03;46.54;;;46.09;;
71172;SDS011;58875;51.996;4.504;2023-02-14T16:13:45;47.46;;;46.67;;
71172;SDS011;58875;51.996;4.504;2023-02-14T16:16:12;48.11;;;47.30;;
71172;SDS011;58875;51.996;4.504;2023-02-14T16:18:46;48.86;;;48.14;;
71172;SDS011;58875;51.996;4.504;2023-02-14T16:21:29;47.41;;;46.88;;
71172;SDS011;58875;51.996;4.504;2023-02-14T16:26:36;48.84;;;47.93;;
71172;SDS011;58875;51.996;4.504;2023-02-14T16:29:13;47.03;;;46.19;;
71172;SDS011;58875;51.996;4.504;2023-02-14T16:34:19;47.92;;;47.51;;
71172;SDS011;58875;51.996;4.504;2023-02-14T16:36:45;49.30;;;48.46;;
71172;SDS011;58875;51.996;4.504;2023-02-14T16:39:17;49.70;;;49.05;;
71172;SDS011;58875;51.996;4.504;2023-02-14T16:41:47;48.80;;;48.11;;
71172;SDS011;58875;51.996;4.504;2023-02-14T16:44:14;47.28;;;46.62;;
71172;SDS011;58875;51.996;4.504;2023-02-14T16:46:42;48.39;;;47.33;;
71172;SDS011;58875;51.996;4.504;2023-02-14T16:49:09;48.02;;;47.24;;
71172;SDS011;58875;51.996;4.504;2023-02-14T16:51:40;48.24;;;47.68;;
71172;SDS011;58875;51.996;4.504;2023-02-14T16:54:14;47.37;;;46.85;;
71172;SDS011;58875;51.996;4.504;2023-02-14T16:56:53;49.68;;;49.08;;
71172;SDS011;58875;51.996;4.504;2023-02-14T16:59:24;50.18;;;49.51;;
71172;SDS011;58875;51.996;4.504;2023-02-14T17:01:49;49.08;;;48.56;;
71172;SDS011;58875;51.996;4.504;2023-02-14T17:04:15;48.99;;;48.13;;
71172;SDS011;58875;51.996;4.504;2023-02-14T17:06:42;50.52;;;49.37;;
71172;SDS011;58875;51.996;4.504;2023-02-14T17:09:13;49.97;;;49.13;;
71172;SDS011;58875;51.996;4.504;2023-02-14T17:11:45;49.70;;;48.86;;
71172;SDS011;58875;51.996;4.504;2023-02-14T17:14:16;50.51;;;49.47;;
71172;SDS011;58875;51.996;4.504;2023-02-14T17:16:49;50.67;;;50.03;;
71172;SDS011;58875;51.996;4.504;2023-02-14T17:19:16;51.49;;;50.43;;
71172;SDS011;58875;51.996;4.504;2023-02-14T17:21:42;52.35;;;51.23;;
71172;SDS011;58875;51.996;4.504;2023-02-14T17:24:08;51.45;;;50.50;;
71172;SDS011;58875;51.996;4.504;2023-02-14T17:26:34;51.64;;;50.93;;
71172;SDS011;58875;51.996;4.504;2023-02-14T17:29:02;50.89;;;50.13;;